Huade, China
Current Conditions -  °F | °C
As of 11:00 PM on Saturday 25 Oct 2014 (Local Time) from ZBHH Reporting Station
Clear Clear  
Wind Chill: 52°   Ceiling: Unl
Heat Index: 52°   Visibility: 6mi
Dew Point: 27°   Wind: 7mph
Humidity: 38%   Direction: 80°E
Pressure: 30.12"   Gusts: NA
Location:  41.9°N, 114°E
Report Text: ZBHH 251500Z 08003MPS CAVOK 11/M03 Q1020 NOSIG
Loading
Personal Weather Stations






























Interactive Weather Map
Tropical Storm Tracking
New forecast layout! Learn more

10-Day Weather Forecast

Advertisements
Track Severe Weather on mobile